Time;durP1;ratioP1;P1;durP2;ratioP2;P2;SDS_P1;SDS_P2;PMS_P1;PMS_P2;Temp;Humidity;BMP_temperature;BMP_pressure;BME280_temperature;BME280_humidity;BME280_pressure;Samples;Min_cycle;Max_cycle;Signal;HPM_P1;HPM_P2
2022/09/06 00:00:49;;;;;;;;;;;18.50;99.90;;;;;;5054678;28;19916;-73
2022/09/06 00:03:15;;;;;;;;;;;18.50;99.90;;;;;;5050700;28;20395;-82
2022/09/06 00:05:42;;;;;;;;;;;18.40;99.90;;;;;;5051512;28;19971;-72
2022/09/06 00:08:08;;;;;;;;;;;18.40;99.90;;;;;;5054432;28;19916;-83
2022/09/06 00:10:33;;;;;;;;;;;18.40;99.90;;;;;;5054200;28;20311;-73
2022/09/06 00:13:01;;;;;;;;;;;18.40;99.90;;;;;;5053842;28;19909;-72
2022/09/06 00:15:26;;;;;;;;;;;18.40;99.90;;;;;;5054148;28;19909;-83
2022/09/06 00:17:52;;;;;;;;;;;18.40;99.90;;;;;;5054263;28;19915;-82
2022/09/06 00:20:17;;;;;;;;;;;18.40;99.90;;;;;;5053846;28;19909;-82
2022/09/06 00:22:43;;;;;;;;;;;18.40;99.90;;;;;;5053474;28;19928;-73
2022/09/06 00:25:09;;;;;;;;;;;18.40;99.90;;;;;;5054934;28;19920;-82
2022/09/06 00:27:34;;;;;;;;;;;18.40;99.90;;;;;;5064230;28;20367;-82
2022/09/06 00:30:00;;;;;;;;;;;18.30;99.90;;;;;;5053905;28;20149;-83
2022/09/06 00:32:25;;;;;;;;;;;18.30;99.90;;;;;;5053928;28;19920;-82
2022/09/06 00:34:51;;;;;;;;;;;18.30;99.90;;;;;;5053932;28;19909;-72
2022/09/06 00:37:16;;;;;;;;;;;18.20;99.90;;;;;;5053868;28;20019;-72
2022/09/06 00:39:42;;;;;;;;;;;18.10;99.90;;;;;;5053937;28;19912;-82
2022/09/06 00:42:08;;;;;;;;;;;18.10;99.90;;;;;;5053866;28;20380;-72
2022/09/06 00:44:34;;;;;;;;;;;18.10;99.90;;;;;;5046214;28;19909;-82
2022/09/06 00:46:59;;;;;;;;;;;18.10;99.90;;;;;;5055176;28;19909;-82
2022/09/06 00:49:28;;;;;;;;;;;18.10;99.90;;;;;;5056620;28;20353;-72
2022/09/06 00:51:56;;;;;;;;;;;18.10;99.90;;;;;;5055153;28;19939;-81
2022/09/06 00:54:22;;;;;;;;;;;18.10;99.90;;;;;;5054775;28;19913;-82
2022/09/06 00:56:47;;;;;;;;;;;18.20;99.90;;;;;;5053800;28;19916;-82
2022/09/06 00:59:13;;;;;;;;;;;18.20;99.90;;;;;;5052438;28;20660;-82
2022/09/06 01:01:39;;;;;;;;;;;18.20;99.90;;;;;;5052348;28;20046;-73
2022/09/06 01:04:04;;;;;;;;;;;18.20;99.90;;;;;;5047105;28;20000;-81
2022/09/06 01:06:45;;;;;;;;;;;18.30;99.90;;;;;;5053428;28;19916;-82
2022/09/06 01:09:13;;;;;;;;;;;18.30;99.90;;;;;;5053309;28;20277;-80
2022/09/06 01:11:47;;;;;;;;;;;18.30;99.90;;;;;;5053272;28;19908;-82
2022/09/06 01:14:23;;;;;;;;;;;18.20;99.90;;;;;;5053347;28;19962;-82
2022/09/06 01:17:00;;;;;;;;;;;18.20;99.90;;;;;;5053199;28;19909;-72
2022/09/06 01:19:25;;;;;;;;;;;18.10;99.90;;;;;;5052236;28;19913;-82
2022/09/06 01:22:09;;;;;;;;;;;18.10;99.90;;;;;;5052772;28;19925;-81
2022/09/06 01:24:53;;;;;;;;;;;18.10;99.90;;;;;;5054162;28;19932;-82
2022/09/06 01:27:19;;;;;;;;;;;18.00;99.90;;;;;;5041740;28;20043;-82
2022/09/06 01:29:51;;;;;;;;;;;18.00;99.90;;;;;;5052870;28;20422;-72
2022/09/06 01:32:26;;;;;;;;;;;18.00;99.90;;;;;;5052872;28;19999;-72
2022/09/06 01:35:04;;;;;;;;;;;18.00;99.90;;;;;;5052733;28;19913;-81
2022/09/06 01:37:30;;;;;;;;;;;17.90;99.90;;;;;;5052657;28;19921;-73
2022/09/06 01:39:55;;;;;;;;;;;18.00;99.90;;;;;;5053010;28;19999;-73
2022/09/06 01:42:22;;;;;;;;;;;18.00;99.90;;;;;;5051157;28;19919;-73
2022/09/06 01:44:52;;;;;;;;;;;18.00;99.90;;;;;;5044075;28;19995;-72
2022/09/06 01:47:20;;;;;;;;;;;18.00;99.90;;;;;;5056326;28;19912;-82
2022/09/06 01:49:46;;;;;;;;;;;17.90;99.90;;;;;;5042211;28;20356;-72
2022/09/06 01:52:14;;;;;;;;;;;17.90;99.90;;;;;;5052978;28;19975;-82
2022/09/06 01:54:49;;;;;;;;;;;18.00;99.90;;;;;;5053943;28;19948;-73
2022/09/06 01:57:34;;;;;;;;;;;18.00;99.90;;;;;;5052607;28;19909;-72
2022/09/06 02:00:07;;;;;;;;;;;18.00;99.90;;;;;;5052068;28;19980;-72
2022/09/06 02:02:51;;;;;;;;;;;18.00;99.90;;;;;;5052739;28;19923;-82
2022/09/06 02:05:17;;;;;;;;;;;18.00;99.90;;;;;;5052750;28;19966;-72
2022/09/06 02:07:44;;;;;;;;;;;17.90;99.90;;;;;;5052880;28;19909;-72
2022/09/06 02:10:13;;;;;;;;;;;17.90;99.90;;;;;;5052690;28;19908;-73
2022/09/06 02:12:40;;;;;;;;;;;17.90;99.90;;;;;;5052442;28;20350;-73
2022/09/06 02:15:12;;;;;;;;;;;17.90;99.90;;;;;;5052543;28;19932;-73
2022/09/06 02:17:40;;;;;;;;;;;17.90;99.90;;;;;;5053040;28;19909;-72
2022/09/06 02:20:08;;;;;;;;;;;17.90;99.90;;;;;;5052298;28;19966;-72
2022/09/06 02:22:38;;;;;;;;;;;17.90;99.90;;;;;;5050585;28;19952;-72
2022/09/06 02:25:05;;;;;;;;;;;17.90;99.90;;;;;;5053763;28;20283;-82
2022/09/06 02:27:31;;;;;;;;;;;18.00;99.90;;;;;;5063468;28;20330;-82
2022/09/06 02:29:56;;;;;;;;;;;18.00;99.90;;;;;;5052247;28;19909;-81
2022/09/06 02:32:23;;;;;;;;;;;18.00;99.90;;;;;;5052355;28;19967;-72
2022/09/06 02:34:52;;;;;;;;;;;18.00;99.90;;;;;;5052442;28;19916;-73
2022/09/06 02:37:18;;;;;;;;;;;18.00;99.90;;;;;;5052453;28;19909;-72
2022/09/06 02:39:44;;;;;;;;;;;18.00;99.90;;;;;;5052561;28;19918;-82
2022/09/06 02:42:11;;;;;;;;;;;18.00;99.90;;;;;;5050213;28;19909;-81
2022/09/06 02:44:36;;;;;;;;;;;18.00;99.90;;;;;;5045392;28;19909;-72
2022/09/06 02:47:02;;;;;;;;;;;18.00;99.90;;;;;;5054562;28;19916;-72
2022/09/06 02:49:28;;;;;;;;;;;17.90;99.90;;;;;;5059095;28;20299;-72
2022/09/06 02:51:54;;;;;;;;;;;17.90;99.90;;;;;;5056698;28;20002;-82
2022/09/06 02:54:20;;;;;;;;;;;17.90;99.90;;;;;;5057105;28;19951;-72
2022/09/06 02:56:45;;;;;;;;;;;18.00;99.90;;;;;;5055753;28;20395;-82
2022/09/06 02:59:10;;;;;;;;;;;18.00;99.90;;;;;;5055208;28;20433;-80
2022/09/06 03:01:36;;;;;;;;;;;18.00;99.90;;;;;;5054379;28;19909;-82
2022/09/06 03:04:01;;;;;;;;;;;18.00;99.90;;;;;;5055911;28;20003;-81
2022/09/06 03:06:27;;;;;;;;;;;18.00;99.90;;;;;;5055772;28;19913;-81
2022/09/06 03:08:53;;;;;;;;;;;17.90;99.90;;;;;;5055727;28;19909;-81
2022/09/06 03:11:18;;;;;;;;;;;17.90;99.90;;;;;;5055091;28;19912;-81
2022/09/06 03:13:43;;;;;;;;;;;17.90;99.90;;;;;;5055628;28;20334;-72
2022/09/06 03:16:09;;;;;;;;;;;17.90;99.90;;;;;;5055346;28;19909;-72
2022/09/06 03:18:34;;;;;;;;;;;18.00;99.90;;;;;;5055440;28;19909;-81
2022/09/06 03:21:00;;;;;;;;;;;18.00;99.90;;;;;;5055287;28;19913;-72
2022/09/06 03:23:26;;;;;;;;;;;18.10;99.90;;;;;;5054809;28;20376;-81
2022/09/06 03:25:52;;;;;;;;;;;18.10;99.90;;;;;;5064135;28;19913;-72
2022/09/06 03:28:18;;;;;;;;;;;18.00;99.90;;;;;;5059027;28;20108;-72
2022/09/06 03:30:44;;;;;;;;;;;18.10;99.90;;;;;;5055029;28;19956;-72
2022/09/06 03:33:10;;;;;;;;;;;18.10;99.90;;;;;;5055204;28;19909;-72
2022/09/06 03:35:35;;;;;;;;;;;18.10;99.90;;;;;;5055281;28;19959;-73
2022/09/06 03:38:01;;;;;;;;;;;18.10;99.90;;;;;;5055005;28;20380;-72
2022/09/06 03:40:26;;;;;;;;;;;18.10;99.90;;;;;;5055328;28;19916;-72
2022/09/06 03:42:52;;;;;;;;;;;18.10;99.90;;;;;;5049523;28;19999;-82
2022/09/06 03:45:17;;;;;;;;;;;18.10;99.90;;;;;;5049945;28;19935;-82
2022/09/06 03:47:43;;;;;;;;;;;18.20;99.90;;;;;;5058856;28;19909;-81
2022/09/06 03:50:09;;;;;;;;;;;18.20;99.90;;;;;;5057454;28;19913;-82
2022/09/06 03:52:34;;;;;;;;;;;18.20;99.90;;;;;;5053334;28;19921;-82
2022/09/06 03:55:00;;;;;;;;;;;18.20;99.90;;;;;;5053489;28;19913;-81
2022/09/06 03:57:25;;;;;;;;;;;18.30;99.90;;;;;;5054640;28;20075;-82
2022/09/06 03:59:51;;;;;;;;;;;18.30;99.90;;;;;;5053988;28;20419;-81
2022/09/06 04:02:16;;;;;;;;;;;18.30;99.90;;;;;;5053920;28;20031;-81
2022/09/06 04:04:42;;;;;;;;;;;18.30;99.90;;;;;;5054860;28;19916;-82
2022/09/06 04:07:07;;;;;;;;;;;18.30;99.90;;;;;;5054467;28;19916;-72
2022/09/06 04:09:33;;;;;;;;;;;18.30;99.90;;;;;;5054396;28;19913;-81
2022/09/06 04:12:02;;;;;;;;;;;18.30;99.90;;;;;;5054311;28;19912;-72
2022/09/06 04:14:27;;;;;;;;;;;18.20;99.90;;;;;;5054598;28;19909;-82
2022/09/06 04:16:53;;;;;;;;;;;18.20;99.90;;;;;;5054063;28;19909;-81
2022/09/06 04:19:18;;;;;;;;;;;18.20;99.90;;;;;;5049861;28;20004;-72
2022/09/06 04:21:44;;;;;;;;;;;18.20;99.90;;;;;;5050213;28;19909;-72
2022/09/06 04:24:09;;;;;;;;;;;18.20;99.90;;;;;;5055036;28;19909;-80
2022/09/06 04:26:35;;;;;;;;;;;18.10;99.90;;;;;;5066369;28;19912;-82
2022/09/06 04:29:00;;;;;;;;;;;18.10;99.90;;;;;;5054302;28;19912;-81
2022/09/06 04:31:26;;;;;;;;;;;18.10;99.90;;;;;;5053486;28;20012;-72
2022/09/06 04:33:51;;;;;;;;;;;18.10;99.90;;;;;;5054197;28;19970;-82
2022/09/06 04:36:17;;;;;;;;;;;18.10;99.90;;;;;;5052416;28;19909;-73
2022/09/06 04:38:43;;;;;;;;;;;18.10;99.90;;;;;;5054110;28;19916;-82
2022/09/06 04:41:14;;;;;;;;;;;18.10;99.90;;;;;;5053874;28;19909;-82
2022/09/06 04:43:40;;;;;;;;;;;18.10;99.90;;;;;;5044370;28;19919;-72
2022/09/06 04:46:09;;;;;;;;;;;18.10;99.90;;;;;;5054622;28;20380;-72
2022/09/06 04:48:34;;;;;;;;;;;18.10;99.90;;;;;;5057317;28;19908;-81
2022/09/06 04:51:00;;;;;;;;;;;18.10;99.90;;;;;;5056605;28;19912;-82
2022/09/06 04:53:25;;;;;;;;;;;18.10;99.90;;;;;;5046977;28;19963;-82
2022/09/06 04:55:51;;;;;;;;;;;18.00;99.90;;;;;;5053543;28;19912;-72
2022/09/06 04:58:16;;;;;;;;;;;18.10;99.90;;;;;;5053161;28;19913;-72
2022/09/06 05:00:43;;;;;;;;;;;18.10;99.90;;;;;;5053090;28;20390;-81
2022/09/06 05:03:09;;;;;;;;;;;18.10;99.90;;;;;;5052402;28;19912;-72
2022/09/06 05:05:34;;;;;;;;;;;18.10;99.90;;;;;;5053167;28;19935;-81
2022/09/06 05:08:00;;;;;;;;;;;18.20;99.90;;;;;;5053183;28;19912;-81
2022/09/06 05:10:25;;;;;;;;;;;18.20;99.90;;;;;;5052708;28;19920;-73
2022/09/06 05:12:52;;;;;;;;;;;18.30;99.90;;;;;;5053035;28;19917;-81
2022/09/06 05:15:18;;;;;;;;;;;18.30;99.90;;;;;;5052759;28;19932;-72
2022/09/06 05:17:44;;;;;;;;;;;18.20;99.90;;;;;;5053366;28;19975;-82
2022/09/06 05:20:10;;;;;;;;;;;18.30;99.90;;;;;;5044859;28;19924;-81
2022/09/06 05:22:35;;;;;;;;;;;18.30;99.90;;;;;;5052163;28;20395;-81
2022/09/06 05:25:01;;;;;;;;;;;18.20;99.90;;;;;;5053687;28;20049;-72
2022/09/06 05:27:26;;;;;;;;;;;18.20;99.90;;;;;;5064166;28;19962;-72
2022/09/06 05:29:52;;;;;;;;;;;18.20;99.90;;;;;;5052707;28;19915;-80
2022/09/06 05:32:17;;;;;;;;;;;18.20;99.90;;;;;;5052670;28;19921;-81
2022/09/06 05:34:43;;;;;;;;;;;18.20;99.90;;;;;;5049898;28;19913;-73
2022/09/06 05:37:09;;;;;;;;;;;18.20;99.90;;;;;;5042675;28;19913;-72
2022/09/06 05:39:34;;;;;;;;;;;18.20;99.90;;;;;;5051379;28;19917;-73
2022/09/06 05:42:05;;;;;;;;;;;18.20;99.90;;;;;;5051225;28;19909;-81
2022/09/06 05:44:34;;;;;;;;;;;18.20;99.90;;;;;;5051464;28;19912;-82
2022/09/06 05:47:00;;;;;;;;;;;18.10;99.90;;;;;;5051419;28;20016;-82
2022/09/06 05:49:27;;;;;;;;;;;18.10;99.90;;;;;;5053793;28;19995;-79
2022/09/06 05:51:52;;;;;;;;;;;18.00;99.90;;;;;;5053879;28;19959;-80
2022/09/06 05:54:18;;;;;;;;;;;18.00;99.90;;;;;;5051900;28;20288;-82
2022/09/06 05:56:43;;;;;;;;;;;18.00;99.90;;;;;;5051839;28;19952;-73
2022/09/06 05:59:09;;;;;;;;;;;18.00;99.90;;;;;;5051602;28;19987;-81
2022/09/06 06:01:34;;;;;;;;;;;18.10;99.90;;;;;;5049164;28;19913;-72
2022/09/06 06:04:01;;;;;;;;;;;18.20;99.90;;;;;;5050692;28;20311;-72
2022/09/06 06:06:31;;;;;;;;;;;18.20;99.90;;;;;;5050958;28;19917;-82
2022/09/06 06:08:56;;;;;;;;;;;18.20;99.90;;;;;;5051577;28;20003;-82
2022/09/06 06:11:23;;;;;;;;;;;18.30;99.90;;;;;;5051235;28;20003;-81
2022/09/06 06:13:49;;;;;;;;;;;18.30;99.90;;;;;;5051474;28;19916;-73
2022/09/06 06:16:16;;;;;;;;;;;18.30;99.90;;;;;;5040298;28;20000;-72
2022/09/06 06:18:43;;;;;;;;;;;18.20;99.90;;;;;;5069764;28;20019;-81
2022/09/06 06:21:09;;;;;;;;;;;18.20;99.90;;;;;;5039388;28;19952;-81
2022/09/06 06:23:35;;;;;;;;;;;18.20;99.90;;;;;;5048637;28;19959;-82
2022/09/06 06:26:00;;;;;;;;;;;18.20;99.90;;;;;;5058011;28;19917;-72
2022/09/06 06:28:26;;;;;;;;;;;18.20;99.90;;;;;;5056997;28;19916;-72
2022/09/06 06:30:53;;;;;;;;;;;18.20;99.90;;;;;;5055171;28;19931;-73
2022/09/06 06:33:18;;;;;;;;;;;18.30;99.90;;;;;;5052264;28;19915;-81
2022/09/06 06:36:00;;;;;;;;;;;18.30;99.90;;;;;;5050450;28;20007;-81
2022/09/06 06:38:30;;;;;;;;;;;18.40;99.90;;;;;;5042227;28;19958;-82
2022/09/06 06:40:55;;;;;;;;;;;18.40;99.90;;;;;;5055684;28;20295;-72
2022/09/06 06:43:21;;;;;;;;;;;18.50;99.90;;;;;;5054211;28;19912;-72
2022/09/06 06:45:49;;;;;;;;;;;18.60;99.90;;;;;;5039326;28;19977;-81
2022/09/06 06:48:15;;;;;;;;;;;18.80;99.90;;;;;;5049471;28;20031;-82
2022/09/06 06:50:41;;;;;;;;;;;19.00;99.90;;;;;;5047050;28;20442;-81
2022/09/06 06:53:06;;;;;;;;;;;19.20;99.90;;;;;;5042706;28;20004;-81
2022/09/06 06:55:32;;;;;;;;;;;19.30;99.90;;;;;;5054932;28;19912;-72
2022/09/06 06:58:00;;;;;;;;;;;19.40;99.90;;;;;;5055309;28;20287;-82
2022/09/06 07:00:26;;;;;;;;;;;19.50;99.90;;;;;;5050627;28;19913;-82
2022/09/06 07:02:55;;;;;;;;;;;19.50;99.90;;;;;;5051660;28;19962;-82
2022/09/06 07:05:21;;;;;;;;;;;19.70;99.90;;;;;;5041569;28;19933;-82
2022/09/06 07:07:46;;;;;;;;;;;19.90;99.90;;;;;;5040832;28;20020;-73
2022/09/06 07:10:12;;;;;;;;;;;20.10;99.90;;;;;;5041468;28;19917;-73
2022/09/06 07:12:37;;;;;;;;;;;20.10;99.90;;;;;;5045502;28;20004;-82
2022/09/06 07:15:03;;;;;;;;;;;20.20;99.90;;;;;;5046407;28;19924;-80
2022/09/06 07:17:28;;;;;;;;;;;20.40;99.90;;;;;;5052056;28;19956;-81
2022/09/06 07:19:54;;;;;;;;;;;20.40;99.90;;;;;;5044615;28;20335;-73
2022/09/06 07:22:19;;;;;;;;;;;20.50;99.90;;;;;;5043678;28;19909;-73
2022/09/06 07:24:45;;;;;;;;;;;20.40;99.90;;;;;;5048581;28;19910;-73
2022/09/06 07:27:10;;;;;;;;;;;20.50;99.90;;;;;;5050726;28;19964;-83
2022/09/06 07:29:36;;;;;;;;;;;20.60;99.90;;;;;;5049398;28;20291;-84
2022/09/06 07:32:01;;;;;;;;;;;20.70;99.90;;;;;;5043410;28;19929;-73
2022/09/06 07:34:27;;;;;;;;;;;20.90;99.90;;;;;;5048519;28;19917;-83
2022/09/06 07:36:55;;;;;;;;;;;21.00;99.90;;;;;;5052532;28;20421;-82
2022/09/06 07:39:21;;;;;;;;;;;21.10;99.90;;;;;;5054118;28;19928;-84
2022/09/06 07:41:47;;;;;;;;;;;21.30;99.90;;;;;;5054255;28;19909;-83
2022/09/06 07:44:12;;;;;;;;;;;21.40;99.90;;;;;;5046144;28;19995;-73
2022/09/06 07:46:38;;;;;;;;;;;21.60;99.90;;;;;;5046960;28;19917;-73
2022/09/06 07:49:04;;;;;;;;;;;22.00;99.90;;;;;;5056591;28;20081;-83
2022/09/06 07:51:29;;;;;;;;;;;24.10;99.90;;;;;;5045002;28;20349;-83
2022/09/06 07:53:55;;;;;;;;;;;26.50;99.90;;;;;;5049050;28;19924;-74
2022/09/06 07:56:21;;;;;;;;;;;27.70;99.90;;;;;;5047462;28;19940;-74
2022/09/06 07:58:47;;;;;;;;;;;28.70;98.50;;;;;;5050008;28;19913;-74
2022/09/06 08:01:33;;;;;;;;;;;28.70;97.80;;;;;;5045817;28;19915;-74
2022/09/06 08:03:58;;;;;;;;;;;29.30;97.50;;;;;;5044020;28;20350;-84
2022/09/06 08:06:25;;;;;;;;;;;30.20;96.60;;;;;;5040546;28;19917;-84
2022/09/06 08:08:50;;;;;;;;;;;30.50;95.30;;;;;;5047236;28;19916;-83
2022/09/06 08:11:16;;;;;;;;;;;30.40;95.10;;;;;;5047690;28;19924;-74
2022/09/06 08:13:42;;;;;;;;;;;30.30;94.90;;;;;;5053354;28;19919;-74
2022/09/06 08:16:08;;;;;;;;;;;31.00;94.60;;;;;;5042727;28;19914;-81
2022/09/06 08:18:34;;;;;;;;;;;31.20;94.00;;;;;;5037561;28;20010;-83
2022/09/06 08:21:06;;;;;;;;;;;32.00;93.30;;;;;;5053328;28;19912;-82
2022/09/06 08:23:32;;;;;;;;;;;32.30;92.50;;;;;;5053576;28;20706;-72
2022/09/06 08:25:58;;;;;;;;;;;32.50;92.40;;;;;;5058723;28;19962;-72
2022/09/06 08:28:24;;;;;;;;;;;32.10;91.80;;;;;;5050264;28;19916;-72
2022/09/06 08:30:49;;;;;;;;;;;32.20;92.00;;;;;;5048947;28;19917;-82
2022/09/06 08:33:16;;;;;;;;;;;32.40;91.20;;;;;;5047025;28;19913;-72
2022/09/06 08:35:42;;;;;;;;;;;32.80;91.10;;;;;;5035482;28;20007;-81
2022/09/06 08:38:07;;;;;;;;;;;33.20;90.50;;;;;;5045520;28;20047;-73
2022/09/06 08:40:33;;;;;;;;;;;33.30;90.40;;;;;;5041769;28;20007;-73
2022/09/06 08:42:58;;;;;;;;;;;33.00;89.90;;;;;;5042853;28;19920;-75
2022/09/06 08:45:24;;;;;;;;;;;31.20;91.20;;;;;;5041034;28;19972;-83
2022/09/06 08:47:51;;;;;;;;;;;31.30;90.90;;;;;;5044540;28;20261;-83
2022/09/06 08:50:17;;;;;;;;;;;31.30;90.90;;;;;;5043078;28;19923;-83
2022/09/06 08:52:54;;;;;;;;;;;32.50;90.50;;;;;;5051699;28;20295;-73
2022/09/06 08:55:20;;;;;;;;;;;33.50;89.10;;;;;;5051040;28;19950;-81
2022/09/06 08:58:04;;;;;;;;;;;33.40;89.00;;;;;;5053210;28;19952;-79
2022/09/06 09:00:30;;;;;;;;;;;33.50;88.50;;;;;;5037030;28;20008;-80
2022/09/06 09:03:15;;;;;;;;;;;33.00;88.90;;;;;;5052786;28;19935;-73
2022/09/06 09:05:41;;;;;;;;;;;33.10;88.60;;;;;;5050272;28;20368;-73
2022/09/06 09:08:26;;;;;;;;;;;33.20;88.00;;;;;;5051694;28;20031;-79
2022/09/06 09:11:00;;;;;;;;;;;32.80;88.70;;;;;;5032907;28;19916;-79
2022/09/06 09:13:30;;;;;;;;;;;33.80;88.00;;;;;;5046556;28;20469;-79
2022/09/06 09:15:56;;;;;;;;;;;34.80;86.30;;;;;;5041629;28;19984;-72
2022/09/06 09:18:24;;;;;;;;;;;35.50;85.70;;;;;;5043720;28;19967;-73
2022/09/06 09:20:49;;;;;;;;;;;35.40;84.60;;;;;;5051517;28;19909;-79
2022/09/06 09:23:15;;;;;;;;;;;34.00;85.40;;;;;;5053080;28;19923;-78
2022/09/06 09:25:40;;;;;;;;;;;34.20;86.10;;;;;;5055639;28;19961;-79
2022/09/06 09:28:12;;;;;;;;;;;34.50;86.00;;;;;;5057218;28;19912;-79
2022/09/06 09:30:47;;;;;;;;;;;35.30;84.60;;;;;;5037119;28;19932;-79
2022/09/06 09:33:32;;;;;;;;;;;34.90;84.20;;;;;;5049555;28;20356;-77
2022/09/06 09:36:03;;;;;;;;;;;33.70;84.40;;;;;;5047024;28;19916;-79
2022/09/06 09:38:30;;;;;;;;;;;33.90;84.90;;;;;;5043675;28;19916;-80
2022/09/06 09:40:58;;;;;;;;;;;34.20;84.60;;;;;;5045538;28;19913;-80
2022/09/06 09:43:25;;;;;;;;;;;34.50;84.00;;;;;;5043603;28;20287;-73
2022/09/06 09:46:06;;;;;;;;;;;34.10;84.60;;;;;;5047870;28;20078;-79
2022/09/06 09:48:31;;;;;;;;;;;34.20;84.10;;;;;;5046284;28;20011;-80
2022/09/06 09:51:14;;;;;;;;;;;33.70;84.50;;;;;;5065019;28;20011;-80
2022/09/06 09:53:48;;;;;;;;;;;34.20;84.00;;;;;;5053116;28;20003;-73
2022/09/06 09:56:14;;;;;;;;;;;34.50;83.40;;;;;;5052840;28;20314;-73
2022/09/06 09:58:39;;;;;;;;;;;34.90;82.60;;;;;;5053962;28;19999;-73
2022/09/06 10:01:32;;;;;;;;;;;34.50;81.90;;;;;;5047419;28;19919;-80
2022/09/06 10:04:02;;;;;;;;;;;34.40;82.40;;;;;;5051711;28;20364;-79
2022/09/06 10:06:27;;;;;;;;;;;34.20;82.30;;;;;;5043999;28;19975;-79
2022/09/06 10:08:53;;;;;;;;;;;33.70;82.70;;;;;;5044702;28;20375;-72
2022/09/06 10:11:37;;;;;;;;;;;33.40;83.20;;;;;;5043069;28;19913;-72
2022/09/06 10:14:10;;;;;;;;;;;33.60;82.80;;;;;;5054776;28;19958;-72
2022/09/06 10:16:43;;;;;;;;;;;32.40;83.10;;;;;;5055740;28;19913;-81
2022/09/06 10:19:20;;;;;;;;;;;31.90;85.10;;;;;;5046821;28;20026;-81
2022/09/06 10:21:46;;;;;;;;;;;31.80;84.00;;;;;;5056007;28;19962;-75
2022/09/06 10:24:33;;;;;;;;;;;31.20;86.30;;;;;;5056623;28;19917;-80
2022/09/06 10:27:00;;;;;;;;;;;30.90;86.50;;;;;;5063881;28;20003;-75
2022/09/06 10:29:37;;;;;;;;;;;31.20;85.20;;;;;;5055739;28;19955;-74
2022/09/06 10:32:09;;;;;;;;;;;30.80;85.60;;;;;;5049820;28;19972;-82
2022/09/06 10:34:35;;;;;;;;;;;30.00;86.80;;;;;;5048992;28;19996;-75
2022/09/06 10:37:15;;;;;;;;;;;29.30;87.00;;;;;;5055533;28;20008;-74
2022/09/06 10:39:59;;;;;;;;;;;29.30;87.50;;;;;;5053496;28;19909;-80
2022/09/06 10:42:33;;;;;;;;;;;30.00;87.10;;;;;;5051608;28;19913;-82
2022/09/06 10:45:01;;;;;;;;;;;29.90;87.10;;;;;;5059081;28;20430;-81
2022/09/06 10:47:30;;;;;;;;;;;29.30;87.70;;;;;;5056069;28;20268;-74
2022/09/06 10:49:58;;;;;;;;;;;28.80;89.00;;;;;;5052578;28;19913;-74
2022/09/06 10:52:26;;;;;;;;;;;29.10;90.20;;;;;;5042732;28;19917;-79
2022/09/06 10:54:54;;;;;;;;;;;28.90;90.20;;;;;;5046658;28;19920;-83
2022/09/06 10:57:20;;;;;;;;;;;28.60;91.10;;;;;;5051381;28;20284;-84
2022/09/06 10:59:51;;;;;;;;;;;28.10;92.10;;;;;;5047972;28;19919;-74
2022/09/06 11:02:43;;;;;;;;;;;28.10;91.60;;;;;;5050637;28;19909;-80
2022/09/06 11:05:32;;;;;;;;;;;28.30;91.30;;;;;;5040885;28;19919;-78
2022/09/06 11:08:20;;;;;;;;;;;28.30;91.20;;;;;;5047912;28;20490;-83
2022/09/06 11:10:48;;;;;;;;;;;28.40;90.90;;;;;;5045620;28;20288;-74
2022/09/06 11:13:18;;;;;;;;;;;28.30;91.10;;;;;;5050655;28;19963;-74
2022/09/06 11:15:44;;;;;;;;;;;28.00;90.90;;;;;;5050607;28;19963;-75
2022/09/06 11:18:17;;;;;;;;;;;27.90;90.60;;;;;;5051725;28;19916;-83
2022/09/06 11:21:03;;;;;;;;;;;27.60;91.40;;;;;;5047403;28;19917;-82
2022/09/06 11:23:39;;;;;;;;;;;27.40;91.40;;;;;;5031688;28;20236;-81
2022/09/06 11:26:04;;;;;;;;;;;27.70;92.20;;;;;;5048089;28;19916;-75
2022/09/06 11:28:35;;;;;;;;;;;27.70;90.80;;;;;;5050833;28;20257;-74
2022/09/06 11:31:01;;;;;;;;;;;27.50;91.60;;;;;;5049909;28;20422;-81
2022/09/06 11:33:29;;;;;;;;;;;27.60;91.80;;;;;;5044303;28;19916;-83
2022/09/06 11:36:13;;;;;;;;;;;27.30;91.60;;;;;;5041789;28;19999;-82
2022/09/06 11:38:39;;;;;;;;;;;27.20;95.80;;;;;;5046873;28;19928;-81
2022/09/06 11:41:12;;;;;;;;;;;26.20;98.50;;;;;;5043998;28;20429;-75
2022/09/06 11:43:44;;;;;;;;;;;25.40;99.90;;;;;;5054077;28;19913;-81
2022/09/06 11:46:09;;;;;;;;;;;25.30;99.90;;;;;;5061522;28;20370;-83
2022/09/06 11:48:47;;;;;;;;;;;25.40;99.90;;;;;;5051998;28;20031;-81
2022/09/06 11:51:29;;;;;;;;;;;25.20;99.90;;;;;;5053115;28;19913;-81
2022/09/06 11:53:54;;;;;;;;;;;25.10;99.90;;;;;;5049097;28;19912;-75
2022/09/06 11:56:37;;;;;;;;;;;25.00;99.90;;;;;;5049885;28;19919;-82
2022/09/06 11:59:18;;;;;;;;;;;24.80;99.90;;;;;;5051850;28;19917;-83
2022/09/06 12:01:56;;;;;;;;;;;24.60;99.90;;;;;;5048764;28;19913;-75
2022/09/06 12:04:22;;;;;;;;;;;24.70;99.90;;;;;;5047404;28;20395;-83
2022/09/06 12:07:06;;;;;;;;;;;24.90;99.90;;;;;;5046894;28;19986;-74
2022/09/06 12:09:33;;;;;;;;;;;25.00;99.90;;;;;;5043299;28;20014;-82
2022/09/06 12:11:59;;;;;;;;;;;25.10;99.90;;;;;;5047466;28;19920;-83
2022/09/06 12:14:30;;;;;;;;;;;25.40;99.90;;;;;;5045748;28;19909;-82
2022/09/06 12:17:06;;;;;;;;;;;25.40;99.90;;;;;;5040509;28;20003;-82
2022/09/06 12:19:50;;;;;;;;;;;25.60;99.90;;;;;;5051893;28;19917;-75
2022/09/06 12:22:25;;;;;;;;;;;25.70;99.90;;;;;;5041336;28;20379;-82
2022/09/06 12:24:52;;;;;;;;;;;25.60;99.90;;;;;;5052458;28;20360;-83
2022/09/06 12:27:22;;;;;;;;;;;25.80;99.90;;;;;;5041813;28;19917;-83
2022/09/06 12:29:49;;;;;;;;;;;25.90;99.90;;;;;;5041682;28;19916;-81
2022/09/06 12:32:18;;;;;;;;;;;26.00;99.90;;;;;;5041926;28;20407;-75
2022/09/06 12:34:45;;;;;;;;;;;26.10;99.60;;;;;;5043837;28;20426;-75
2022/09/06 12:37:10;;;;;;;;;;;25.70;99.70;;;;;;5052218;28;20257;-82
2022/09/06 12:39:36;;;;;;;;;;;25.40;99.30;;;;;;5052972;28;19917;-83
2022/09/06 12:42:11;;;;;;;;;;;25.70;98.70;;;;;;5053099;28;20002;-74
2022/09/06 12:44:40;;;;;;;;;;;26.20;97.60;;;;;;5057394;28;19909;-82
2022/09/06 12:47:26;;;;;;;;;;;26.40;96.90;;;;;;5046369;28;19975;-75
2022/09/06 12:50:08;;;;;;;;;;;26.60;96.70;;;;;;5052184;28;19971;-83
2022/09/06 12:52:42;;;;;;;;;;;26.80;96.60;;;;;;5044782;28;19917;-83
2022/09/06 12:55:26;;;;;;;;;;;26.70;96.60;;;;;;5051981;28;20229;-83
2022/09/06 12:57:55;;;;;;;;;;;27.00;96.40;;;;;;5052263;28;19913;-75
2022/09/06 13:00:22;;;;;;;;;;;27.00;96.50;;;;;;5048935;28;19909;-75
2022/09/06 13:02:53;;;;;;;;;;;27.10;96.40;;;;;;5049139;28;19920;-84
2022/09/06 13:05:19;;;;;;;;;;;27.50;96.00;;;;;;5043447;28;19917;-83
2022/09/06 13:07:46;;;;;;;;;;;27.70;95.90;;;;;;5037566;28;20295;-75
2022/09/06 13:10:14;;;;;;;;;;;27.30;95.90;;;;;;5050058;28;19917;-74
2022/09/06 13:12:42;;;;;;;;;;;26.50;97.20;;;;;;5051412;28;19908;-75
2022/09/06 13:15:25;;;;;;;;;;;26.00;97.70;;;;;;5045253;28;20361;-84
2022/09/06 13:17:52;;;;;;;;;;;26.20;98.00;;;;;;5032591;28;20475;-84
2022/09/06 13:20:23;;;;;;;;;;;26.60;98.10;;;;;;5050085;28;19916;-83
2022/09/06 13:22:49;;;;;;;;;;;26.70;98.00;;;;;;5047747;28;20621;-76
2022/09/06 13:25:21;;;;;;;;;;;26.30;98.30;;;;;;5046826;28;19921;-75
2022/09/06 13:27:56;;;;;;;;;;;25.90;98.70;;;;;;5041976;28;19920;-84
2022/09/06 13:30:28;;;;;;;;;;;25.90;99.20;;;;;;5037224;28;19917;-83
2022/09/06 13:32:53;;;;;;;;;;;26.20;98.70;;;;;;5045332;28;20445;-75
2022/09/06 13:35:22;;;;;;;;;;;26.30;97.10;;;;;;5048987;28;19948;-75
2022/09/06 13:37:48;;;;;;;;;;;25.90;97.50;;;;;;5035099;28;19913;-75
2022/09/06 13:40:33;;;;;;;;;;;25.40;98.40;;;;;;5052088;28;19915;-86
2022/09/06 13:42:58;;;;;;;;;;;25.40;99.60;;;;;;5051877;28;20402;-75
2022/09/06 13:45:26;;;;;;;;;;;25.90;99.90;;;;;;5056943;28;20004;-84
2022/09/06 13:47:52;;;;;;;;;;;26.10;99.90;;;;;;5058572;28;19975;-85
2022/09/06 13:50:18;;;;;;;;;;;25.40;99.90;;;;;;5051726;28;19913;-76
2022/09/06 13:52:43;;;;;;;;;;;25.10;99.90;;;;;;5045667;28;19913;-75
2022/09/06 13:55:12;;;;;;;;;;;24.40;99.90;;;;;;5051015;28;20375;-75
2022/09/06 13:57:38;;;;;;;;;;;24.00;99.90;;;;;;5051936;28;19908;-75
2022/09/06 14:00:04;;;;;;;;;;;24.10;99.90;;;;;;5051395;28;19912;-85
2022/09/06 14:02:29;;;;;;;;;;;24.10;99.90;;;;;;5050218;28;19909;-78
2022/09/06 14:04:55;;;;;;;;;;;23.90;99.60;;;;;;5043296;28;19913;-76
2022/09/06 14:07:21;;;;;;;;;;;23.70;99.60;;;;;;5051341;28;19975;-84
2022/09/06 14:09:48;;;;;;;;;;;23.80;99.90;;;;;;5040969;28;19952;-85
2022/09/06 14:12:14;;;;;;;;;;;23.70;99.80;;;;;;5045548;28;19908;-85
2022/09/06 14:14:39;;;;;;;;;;;23.70;99.90;;;;;;5051737;28;20387;-84
2022/09/06 14:17:05;;;;;;;;;;;23.60;99.90;;;;;;5051701;28;20376;-75
2022/09/06 14:19:30;;;;;;;;;;;23.40;99.90;;;;;;5051781;28;19919;-75
2022/09/06 14:21:56;;;;;;;;;;;23.40;99.90;;;;;;5040664;28;20738;-85
2022/09/06 14:24:22;;;;;;;;;;;23.30;99.90;;;;;;5053290;28;19920;-85